Time;durP1;ratioP1;P1;durP2;ratioP2;P2;SDS_P1;SDS_P2;PMS_P1;PMS_P2;Temp;Humidity;BMP_temperature;BMP_pressure;BME280_temperature;BME280_humidity;BME280_pressure;Samples;Min_cycle;Max_cycle;Signal;HPM_P1;HPM_P2
2021/07/04 00:00:20;;;;;;;4.30;2.22;;;22.70;99.90;;;;;;4994877;28;20037;-77
2021/07/04 00:02:46;;;;;;;2.80;1.88;;;22.70;99.90;;;;;;4995226;28;20023;-79
2021/07/04 00:05:15;;;;;;;3.33;2.63;;;22.70;99.90;;;;;;4995086;28;20073;-79
2021/07/04 00:07:42;;;;;;;3.83;2.70;;;22.70;99.90;;;;;;4995106;28;20097;-78
2021/07/04 00:10:10;;;;;;;2.30;2.00;;;22.70;99.90;;;;;;4995245;28;20080;-77
2021/07/04 00:12:36;;;;;;;4.65;2.50;;;22.60;99.90;;;;;;4995345;28;20552;-78
2021/07/04 00:15:05;;;;;;;2.72;2.13;;;22.60;99.90;;;;;;4994997;28;20030;-78
2021/07/04 00:17:30;;;;;;;4.18;2.45;;;22.70;99.90;;;;;;4994088;28;20514;-78
2021/07/04 00:19:56;;;;;;;2.83;1.90;;;22.70;99.90;;;;;;4994278;28;20061;-79
2021/07/04 00:22:21;;;;;;;3.50;2.38;;;22.70;99.90;;;;;;4994788;28;20097;-78
2021/07/04 00:24:47;;;;;;;3.30;2.47;;;22.70;99.90;;;;;;4994650;28;20410;-78
2021/07/04 00:27:13;;;;;;;2.78;2.35;;;22.70;99.90;;;;;;4994705;28;20030;-78
2021/07/04 00:29:38;;;;;;;2.80;2.10;;;22.70;99.90;;;;;;4993712;28;20037;-78
2021/07/04 00:32:04;;;;;;;4.05;2.80;;;22.60;99.90;;;;;;4994954;28;20505;-78
2021/07/04 00:34:30;;;;;;;2.35;2.10;;;22.70;99.90;;;;;;4994351;28;20029;-78
2021/07/04 00:36:55;;;;;;;2.83;2.22;;;22.60;99.90;;;;;;4994614;28;20022;-78
2021/07/04 00:39:21;;;;;;;3.63;2.88;;;22.60;99.90;;;;;;4994449;28;20085;-77
2021/07/04 00:41:47;;;;;;;3.97;2.40;;;22.60;99.90;;;;;;4994618;28;20562;-78
2021/07/04 00:44:12;;;;;;;2.10;1.88;;;22.60;99.90;;;;;;4994293;28;20109;-78
2021/07/04 00:46:38;;;;;;;3.28;2.30;;;22.60;99.90;;;;;;4994210;28;20375;-78
2021/07/04 00:49:03;;;;;;;3.13;2.45;;;22.60;99.90;;;;;;4994632;28;20038;-79
2021/07/04 00:51:29;;;;;;;2.90;2.42;;;22.60;99.90;;;;;;4993998;28;20026;-78
2021/07/04 00:53:55;;;;;;;2.97;2.30;;;22.60;99.90;;;;;;4994173;28;20386;-78
2021/07/04 00:56:21;;;;;;;2.50;2.00;;;22.60;99.90;;;;;;4993609;28;20049;-77
2021/07/04 00:58:47;;;;;;;2.90;2.25;;;22.60;99.90;;;;;;4994020;28;20023;-78
2021/07/04 01:01:12;;;;;;;2.97;2.30;;;22.60;99.90;;;;;;4993649;28;20030;-78
2021/07/04 01:03:38;;;;;;;3.00;2.28;;;22.60;99.90;;;;;;4993984;28;20034;-78
2021/07/04 01:06:04;;;;;;;2.72;2.08;;;22.60;99.90;;;;;;4994563;28;20029;-78
2021/07/04 01:08:29;;;;;;;2.28;1.85;;;22.60;99.90;;;;;;4993890;28;20049;-78
2021/07/04 01:10:55;;;;;;;2.55;2.20;;;22.60;99.90;;;;;;4994031;28;20049;-78
2021/07/04 01:13:21;;;;;;;2.92;2.38;;;22.60;99.90;;;;;;4993694;28;20117;-78
2021/07/04 01:15:47;;;;;;;2.58;2.00;;;22.60;99.90;;;;;;4993899;28;20033;-78
2021/07/04 01:18:13;;;;;;;2.92;2.20;;;22.50;99.90;;;;;;4992842;28;20022;-78
2021/07/04 01:20:40;;;;;;;3.58;2.28;;;22.50;99.90;;;;;;4981495;28;20159;-78
2021/07/04 01:23:14;;;;;;;2.58;2.08;;;22.60;99.90;;;;;;4994155;28;20050;-78
2021/07/04 01:25:52;;;;;;;2.72;2.28;;;22.50;99.90;;;;;;5009103;28;20449;-78
2021/07/04 01:28:18;;;;;;;2.92;1.90;;;22.50;99.90;;;;;;4993399;28;20038;-78
2021/07/04 01:30:46;;;;;;;2.33;2.00;;;22.60;99.90;;;;;;4993670;28;20033;-77
2021/07/04 01:33:12;;;;;;;2.38;1.90;;;22.50;99.90;;;;;;4993328;28;20399;-78
2021/07/04 01:35:37;;;;;;;2.55;2.00;;;22.50;99.90;;;;;;4993565;28;20037;-77
2021/07/04 01:38:03;;;;;;;2.53;2.00;;;22.50;99.90;;;;;;4993580;28;20033;-78
2021/07/04 01:40:33;;;;;;;3.00;1.88;;;22.50;99.90;;;;;;4991772;28;20057;-78
2021/07/04 01:42:59;;;;;;;2.05;1.67;;;22.50;99.90;;;;;;4993568;28;20050;-78
2021/07/04 01:45:25;;;;;;;2.60;1.90;;;22.50;99.90;;;;;;4993211;28;20077;-79
2021/07/04 01:47:54;;;;;;;3.20;2.28;;;22.50;99.90;;;;;;4992765;28;20081;-78
2021/07/04 01:50:28;;;;;;;2.10;1.90;;;22.50;99.90;;;;;;4992985;28;20022;-78
2021/07/04 01:52:54;;;;;;;2.05;1.60;;;22.40;99.90;;;;;;4992819;28;20502;-78
2021/07/04 01:55:20;;;;;;;2.55;2.00;;;22.50;99.90;;;;;;4992502;28;20026;-77
2021/07/04 01:57:47;;;;;;;3.72;2.17;;;22.40;99.90;;;;;;4993084;28;20054;-77
2021/07/04 02:00:15;;;;;;;3.50;2.30;;;22.50;99.90;;;;;;4992773;28;20036;-78
2021/07/04 02:02:43;;;;;;;2.55;1.98;;;22.50;99.90;;;;;;4992819;28;20031;-79
2021/07/04 02:05:09;;;;;;;2.70;2.35;;;22.50;99.90;;;;;;4992468;28;20113;-78
2021/07/04 02:07:35;;;;;;;2.65;2.28;;;22.40;99.90;;;;;;4991684;28;20110;-79
2021/07/04 02:10:03;;;;;;;3.58;2.97;;;22.40;99.90;;;;;;4992974;28;20101;-79
2021/07/04 02:12:28;;;;;;;2.72;2.10;;;22.40;99.90;;;;;;4992611;28;20126;-77
2021/07/04 02:14:54;;;;;;;3.10;2.33;;;22.40;99.90;;;;;;4992946;28;20499;-78
2021/07/04 02:17:20;;;;;;;3.05;2.10;;;22.40;99.90;;;;;;4992101;28;20085;-79
2021/07/04 02:19:45;;;;;;;2.58;1.80;;;22.40;99.90;;;;;;4992377;28;20026;-78
2021/07/04 02:22:11;;;;;;;2.75;2.08;;;22.40;99.90;;;;;;4991835;28;20222;-77
2021/07/04 02:24:38;;;;;;;4.68;1.90;;;22.40;99.90;;;;;;4991683;28;20027;-77
2021/07/04 02:27:05;;;;;;;2.63;1.92;;;22.40;99.90;;;;;;4992819;28;20033;-78
2021/07/04 02:29:31;;;;;;;3.13;2.05;;;22.40;99.90;;;;;;4992363;28;20025;-78
2021/07/04 02:31:56;;;;;;;3.13;2.30;;;22.40;99.90;;;;;;4992423;28;20042;-78
2021/07/04 02:34:22;;;;;;;2.58;2.00;;;22.40;99.90;;;;;;4992502;28;20022;-78
2021/07/04 02:36:48;;;;;;;2.67;1.88;;;22.40;99.90;;;;;;4992337;28;20109;-78
2021/07/04 02:39:14;;;;;;;2.30;1.98;;;22.30;99.90;;;;;;4992193;28;20032;-77
2021/07/04 02:41:42;;;;;;;3.03;2.03;;;22.30;99.90;;;;;;4992197;28;20027;-77
2021/07/04 02:44:08;;;;;;;3.22;2.28;;;22.30;99.90;;;;;;4992062;28;20026;-78
2021/07/04 02:46:34;;;;;;;2.42;2.08;;;22.30;99.90;;;;;;4992468;28;20080;-77
2021/07/04 02:49:00;;;;;;;2.75;1.70;;;22.30;99.90;;;;;;4992253;28;20023;-78
2021/07/04 02:51:26;;;;;;;2.20;1.67;;;22.30;99.90;;;;;;4991339;28;20020;-78
2021/07/04 02:53:51;;;;;;;3.40;2.03;;;22.30;99.90;;;;;;4992268;28;20122;-77
2021/07/04 02:56:17;;;;;;;3.90;1.95;;;22.30;99.90;;;;;;4991952;28;20022;-78
2021/07/04 02:58:42;;;;;;;3.13;1.75;;;22.30;99.90;;;;;;4992110;28;20030;-77
2021/07/04 03:01:08;;;;;;;2.40;1.80;;;22.30;99.90;;;;;;4991733;28;20505;-78
2021/07/04 03:03:34;;;;;;;3.03;2.10;;;22.30;99.90;;;;;;4992354;28;20030;-78
2021/07/04 03:05:59;;;;;;;2.60;1.98;;;22.30;99.90;;;;;;4991987;28;20031;-78
2021/07/04 03:08:25;;;;;;;2.67;1.60;;;22.30;99.90;;;;;;4991868;28;20178;-77
2021/07/04 03:10:51;;;;;;;2.33;1.70;;;22.30;99.90;;;;;;4992075;28;20070;-77
2021/07/04 03:13:16;;;;;;;2.20;1.70;;;22.30;99.90;;;;;;4991407;28;20039;-78
2021/07/04 03:15:42;;;;;;;3.38;2.13;;;22.30;99.90;;;;;;4992008;28;20033;-77
2021/07/04 03:18:08;;;;;;;3.50;3.08;;;22.30;99.90;;;;;;4991949;28;20034;-78
2021/07/04 03:20:34;;;;;;;3.80;2.80;;;22.30;99.90;;;;;;4991929;28;20407;-78
2021/07/04 03:23:00;;;;;;;2.42;1.92;;;22.30;99.90;;;;;;4991798;28;20031;-77
2021/07/04 03:25:26;;;;;;;2.58;2.22;;;22.20;99.90;;;;;;4990814;28;20033;-78
2021/07/04 03:27:51;;;;;;;3.30;2.40;;;22.20;99.90;;;;;;4991526;28;20022;-78
2021/07/04 03:30:22;;;;;;;2.20;2.00;;;22.20;99.90;;;;;;4991723;28;20037;-78
2021/07/04 03:32:52;;;;;;;3.38;1.88;;;22.20;99.90;;;;;;4991317;28;20042;-77
2021/07/04 03:35:18;;;;;;;2.72;2.30;;;22.20;99.90;;;;;;4991753;28;20076;-77
2021/07/04 03:37:44;;;;;;;3.10;1.83;;;22.20;99.90;;;;;;4991481;28;20034;-77
2021/07/04 03:40:14;;;;;;;2.70;2.17;;;22.20;99.90;;;;;;4991778;28;20038;-77
2021/07/04 03:42:40;;;;;;;3.47;2.90;;;22.20;99.90;;;;;;4991215;28;20031;-77
2021/07/04 03:45:07;;;;;;;3.97;2.50;;;22.20;99.90;;;;;;5006221;28;20073;-77
2021/07/04 03:47:32;;;;;;;2.08;1.55;;;22.20;99.90;;;;;;4991333;28;20022;-78
2021/07/04 03:49:59;;;;;;;3.33;2.30;;;22.20;99.90;;;;;;4991671;28;20997;-77
2021/07/04 03:52:25;;;;;;;4.97;2.40;;;22.20;99.90;;;;;;4991754;28;20080;-77
2021/07/04 03:54:50;;;;;;;2.92;2.50;;;22.20;99.90;;;;;;4991277;28;20101;-76
2021/07/04 03:57:22;;;;;;;3.47;2.25;;;22.20;99.90;;;;;;4991503;28;20109;-76
2021/07/04 03:59:53;;;;;;;3.33;2.65;;;22.20;99.90;;;;;;4991209;28;20023;-77
2021/07/04 04:02:19;;;;;;;2.35;2.08;;;22.20;99.90;;;;;;4991180;28;20037;-77
2021/07/04 04:04:45;;;;;;;3.58;2.50;;;22.20;99.90;;;;;;4993810;28;20505;-77
2021/07/04 04:07:11;;;;;;;3.13;2.10;;;22.20;99.90;;;;;;4995092;28;20053;-77
2021/07/04 04:09:37;;;;;;;3.58;2.50;;;22.20;99.90;;;;;;4995116;28;20046;-77
2021/07/04 04:12:04;;;;;;;3.17;2.88;;;22.20;99.90;;;;;;4994730;28;20418;-77
2021/07/04 04:14:29;;;;;;;2.40;1.77;;;22.20;99.90;;;;;;4994690;28;20399;-77
2021/07/04 04:16:55;;;;;;;2.42;2.10;;;22.10;99.90;;;;;;4995089;28;20022;-77
2021/07/04 04:19:21;;;;;;;2.30;1.83;;;22.10;99.90;;;;;;4994882;28;20430;-77
2021/07/04 04:21:46;;;;;;;2.25;1.88;;;22.10;99.90;;;;;;4994717;28;20389;-77
2021/07/04 04:24:12;;;;;;;4.20;2.50;;;22.10;99.90;;;;;;4994779;28;20033;-77
2021/07/04 04:26:37;;;;;;;3.33;2.00;;;22.10;99.90;;;;;;4994784;28;20030;-78
2021/07/04 04:29:03;;;;;;;2.42;2.13;;;22.10;99.90;;;;;;4994533;28;20418;-77
2021/07/04 04:31:29;;;;;;;2.60;1.98;;;22.10;99.90;;;;;;4994568;28;20372;-77
2021/07/04 04:33:55;;;;;;;2.75;2.35;;;22.10;99.90;;;;;;4994546;28;20104;-77
2021/07/04 04:36:20;;;;;;;2.33;2.00;;;22.10;99.90;;;;;;4994391;28;20632;-77
2021/07/04 04:38:46;;;;;;;2.72;1.90;;;22.10;99.90;;;;;;4994281;28;20113;-78
2021/07/04 04:41:12;;;;;;;2.28;2.03;;;22.10;99.90;;;;;;4994423;28;20029;-78
2021/07/04 04:43:38;;;;;;;2.08;1.80;;;22.10;99.90;;;;;;4993693;28;20061;-77
2021/07/04 04:46:03;;;;;;;4.25;2.38;;;22.10;99.90;;;;;;4993757;28;20034;-77
2021/07/04 04:48:29;;;;;;;2.92;2.38;;;22.10;99.90;;;;;;4994419;28;20018;-77
2021/07/04 04:50:55;;;;;;;3.15;2.00;;;22.10;99.90;;;;;;4994127;28;20044;-78
2021/07/04 04:53:20;;;;;;;3.90;2.42;;;22.10;99.90;;;;;;4994309;28;20058;-77
2021/07/04 04:55:46;;;;;;;2.20;2.00;;;22.10;99.90;;;;;;4994059;28;20022;-77
2021/07/04 04:58:12;;;;;;;2.28;1.92;;;22.10;99.90;;;;;;4994020;28;20030;-77
2021/07/04 05:00:37;;;;;;;3.20;2.17;;;22.10;99.90;;;;;;5005496;28;20042;-77
2021/07/04 05:03:06;;;;;;;3.60;2.00;;;22.10;99.90;;;;;;4974625;28;20488;-76
2021/07/04 05:05:32;;;;;;;3.35;2.58;;;22.10;99.90;;;;;;4974340;28;20022;-77
2021/07/04 05:07:58;;;;;;;3.35;2.30;;;22.10;99.90;;;;;;4974377;28;20399;-77
2021/07/04 05:10:23;;;;;;;2.83;2.00;;;22.10;99.90;;;;;;4974551;28;20031;-78
2021/07/04 05:12:49;;;;;;;3.90;2.00;;;22.10;99.90;;;;;;4983819;28;20529;-77
2021/07/04 05:15:15;;;;;;;3.03;1.80;;;22.00;99.90;;;;;;4993766;28;20435;-77
2021/07/04 05:17:40;;;;;;;2.78;2.03;;;22.10;99.90;;;;;;4993872;28;20030;-77
2021/07/04 05:20:07;;;;;;;3.30;2.10;;;22.10;99.90;;;;;;4994096;28;20030;-77
2021/07/04 05:22:34;;;;;;;2.33;2.13;;;22.10;99.90;;;;;;4993552;28;20054;-77
2021/07/04 05:24:59;;;;;;;2.00;1.80;;;22.10;99.90;;;;;;4993804;28;20023;-78
2021/07/04 05:27:25;;;;;;;2.72;1.95;;;22.00;99.90;;;;;;4993425;28;20053;-77
2021/07/04 05:29:51;;;;;;;2.72;1.73;;;22.10;99.90;;;;;;4993308;28;20026;-77
2021/07/04 05:32:16;;;;;;;2.30;2.00;;;22.10;99.90;;;;;;4993560;28;20524;-77
2021/07/04 05:34:42;;;;;;;2.75;1.92;;;22.00;99.90;;;;;;4993613;28;20498;-77
2021/07/04 05:37:08;;;;;;;2.70;1.88;;;22.00;99.90;;;;;;4993433;28;20022;-77
2021/07/04 05:39:33;;;;;;;4.05;2.08;;;22.00;99.90;;;;;;4993116;28;20034;-77
2021/07/04 05:41:59;;;;;;;2.38;1.70;;;22.10;99.90;;;;;;4992764;28;20503;-77
2021/07/04 05:44:25;;;;;;;2.30;2.00;;;22.10;99.90;;;;;;4993449;28;20474;-78
2021/07/04 05:46:51;;;;;;;4.07;2.85;;;22.00;99.90;;;;;;4993228;28;20387;-77
2021/07/04 05:49:16;;;;;;;3.15;2.22;;;22.00;99.90;;;;;;4992235;28;20022;-78
2021/07/04 05:51:42;;;;;;;3.33;2.30;;;22.00;99.90;;;;;;4992565;28;20031;-78
2021/07/04 05:54:08;;;;;;;2.90;2.55;;;22.00;99.90;;;;;;4992730;28;20037;-77
2021/07/04 05:56:34;;;;;;;3.53;2.40;;;22.00;99.90;;;;;;4992980;28;20022;-77
2021/07/04 05:58:59;;;;;;;2.30;1.90;;;22.00;99.90;;;;;;4993063;28;20027;-77
2021/07/04 06:01:25;;;;;;;2.33;1.92;;;22.00;99.90;;;;;;4992796;28;20088;-77
2021/07/04 06:03:51;;;;;;;2.30;1.90;;;22.00;99.90;;;;;;4992902;28;20097;-76
2021/07/04 06:06:16;;;;;;;2.42;1.95;;;22.00;99.90;;;;;;4993170;28;20029;-77
2021/07/04 06:08:42;;;;;;;3.50;1.70;;;22.00;99.90;;;;;;4992785;28;20482;-78
2021/07/04 06:11:08;;;;;;;3.13;2.25;;;22.00;99.90;;;;;;4992973;28;20026;-77
2021/07/04 06:13:33;;;;;;;5.78;2.13;;;22.00;99.90;;;;;;4991974;28;20038;-77
2021/07/04 06:15:59;;;;;;;3.55;2.38;;;22.00;99.90;;;;;;4992809;28;20034;-77
2021/07/04 06:18:25;;;;;;;2.15;1.83;;;22.00;99.90;;;;;;4992765;28;20034;-78
2021/07/04 06:20:51;;;;;;;2.10;1.77;;;22.00;99.90;;;;;;4992575;28;20482;-77
2021/07/04 06:23:17;;;;;;;2.58;1.90;;;22.00;99.90;;;;;;4992503;28;20066;-77
2021/07/04 06:25:42;;;;;;;1.90;1.40;;;22.00;99.90;;;;;;4992554;28;20460;-77
2021/07/04 06:28:08;;;;;;;3.17;2.13;;;22.00;99.90;;;;;;4991945;28;20450;-78
2021/07/04 06:30:34;;;;;;;3.65;2.15;;;22.00;99.90;;;;;;4992452;28;20483;-77
2021/07/04 06:33:00;;;;;;;2.20;1.88;;;22.00;99.90;;;;;;4992584;28;20438;-77
2021/07/04 06:35:26;;;;;;;2.85;2.30;;;22.00;99.90;;;;;;4992485;28;20033;-77
2021/07/04 06:37:51;;;;;;;3.17;1.90;;;22.00;99.90;;;;;;4992252;28;20394;-76
2021/07/04 06:40:17;;;;;;;2.88;2.08;;;22.00;99.90;;;;;;4992235;28;20069;-76
2021/07/04 06:42:43;;;;;;;5.90;2.30;;;22.00;99.90;;;;;;4991247;28;20101;-78
2021/07/04 06:45:12;;;;;;;2.13;1.50;;;22.00;99.90;;;;;;4992302;28;20030;-78
2021/07/04 06:47:43;;;;;;;3.20;1.90;;;21.90;99.90;;;;;;4992176;28;20037;-77
2021/07/04 06:50:10;;;;;;;3.17;1.80;;;22.00;99.90;;;;;;4991959;28;20502;-77
2021/07/04 06:52:36;;;;;;;2.65;1.67;;;22.00;99.90;;;;;;4991903;28;20045;-79
2021/07/04 06:55:03;;;;;;;2.47;1.60;;;22.00;99.90;;;;;;4992033;28;20029;-78
2021/07/04 06:57:29;;;;;;;2.50;1.90;;;22.00;99.90;;;;;;4992094;28;20027;-78
2021/07/04 07:00:00;;;;;;;2.63;1.75;;;22.00;99.90;;;;;;4992166;28;20121;-78
2021/07/04 07:02:27;;;;;;;3.38;2.03;;;22.00;99.90;;;;;;4990663;28;20397;-78
2021/07/04 07:04:53;;;;;;;1.95;1.63;;;22.00;99.90;;;;;;4990714;28;20551;-79
2021/07/04 07:07:20;;;;;;;2.10;1.55;;;22.00;99.90;;;;;;4991019;28;20113;-76
2021/07/04 07:09:45;;;;;;;2.47;1.75;;;22.00;99.90;;;;;;4990283;28;20027;-76
2021/07/04 07:12:11;;;;;;;3.92;1.70;;;22.00;99.90;;;;;;4991443;28;20053;-78
2021/07/04 07:14:37;;;;;;;3.05;1.85;;;22.00;99.90;;;;;;4991403;28;20084;-76
2021/07/04 07:17:02;;;;;;;3.58;2.10;;;22.00;99.90;;;;;;4991910;28;20088;-77
2021/07/04 07:19:28;;;;;;;2.28;1.60;;;22.00;99.90;;;;;;4991114;28;20066;-77
2021/07/04 07:21:54;;;;;;;3.13;2.60;;;22.00;99.90;;;;;;4990816;28;20030;-76
2021/07/04 07:24:19;;;;;;;3.75;1.55;;;22.00;99.90;;;;;;4991255;28;20395;-77
2021/07/04 07:26:45;;;;;;;2.72;1.77;;;22.00;99.90;;;;;;4991175;28;20138;-77
2021/07/04 07:29:10;;;;;;;6.05;2.05;;;22.00;99.90;;;;;;4991700;28;20030;-77
2021/07/04 07:31:36;;;;;;;3.58;1.40;;;22.00;99.90;;;;;;4990862;28;20077;-79
2021/07/04 07:34:03;;;;;;;2.40;1.55;;;22.00;99.90;;;;;;4991411;28;20465;-79
2021/07/04 07:36:29;;;;;;;1.95;1.60;;;22.00;99.90;;;;;;4991263;28;20499;-79
2021/07/04 07:38:55;;;;;;;1.90;1.70;;;22.00;99.90;;;;;;4991776;28;20081;-76
2021/07/04 07:41:20;;;;;;;2.42;1.70;;;22.00;99.90;;;;;;4994201;28;20081;-78
2021/07/04 07:43:47;;;;;;;2.67;1.80;;;22.00;99.90;;;;;;4994635;28;20033;-77
2021/07/04 07:46:14;;;;;;;3.25;1.60;;;22.00;99.90;;;;;;4985817;28;20117;-78
2021/07/04 07:48:40;;;;;;;3.13;2.10;;;22.00;99.90;;;;;;4994805;28;20106;-76
2021/07/04 07:51:06;;;;;;;4.13;2.00;;;22.00;99.90;;;;;;4993602;28;20101;-76
2021/07/04 07:53:32;;;;;;;2.75;2.08;;;22.00;99.90;;;;;;4993462;28;20097;-76
2021/07/04 07:55:58;;;;;;;4.35;2.63;;;22.00;99.90;;;;;;4994907;28;20084;-79
2021/07/04 07:58:24;;;;;;;3.92;2.05;;;22.00;99.90;;;;;;4993970;28;20022;-78
2021/07/04 08:00:50;;;;;;;3.25;1.80;;;22.00;99.90;;;;;;4994213;28;20121;-80
2021/07/04 08:03:15;;;;;;;6.25;2.00;;;22.00;99.90;;;;;;4995132;28;20122;-80
2021/07/04 08:05:41;;;;;;;3.75;1.92;;;22.00;99.90;;;;;;4994649;28;20023;-78
2021/07/04 08:08:07;;;;;;;5.18;2.17;;;22.00;99.90;;;;;;4994841;28;20034;-81
2021/07/04 08:10:37;;;;;;;10.68;2.78;;;22.10;99.90;;;;;;4994744;28;20035;-79
2021/07/04 08:13:05;;;;;;;5.68;2.22;;;22.10;99.90;;;;;;4994931;28;20041;-79
2021/07/04 08:15:31;;;;;;;9.20;2.42;;;22.10;99.90;;;;;;4994222;28;20027;-82
2021/07/04 08:17:57;;;;;;;9.70;2.50;;;22.10;99.90;;;;;;4994739;28;20029;-80
2021/07/04 08:20:23;;;;;;;9.70;4.05;;;22.10;99.90;;;;;;4994324;28;20030;-79
2021/07/04 08:22:49;;;;;;;7.88;2.75;;;22.10;99.90;;;;;;4993031;28;20030;-79
2021/07/04 08:25:16;;;;;;;8.77;2.72;;;22.10;99.90;;;;;;4994892;28;20027;-80
2021/07/04 08:27:42;;;;;;;11.32;2.60;;;22.10;99.90;;;;;;4994469;28;20035;-78
2021/07/04 08:30:10;;;;;;;11.23;3.35;;;22.10;99.90;;;;;;4994289;28;20482;-79
2021/07/04 08:32:36;;;;;;;10.38;3.35;;;22.10;99.90;;;;;;4993780;28;20026;-79
2021/07/04 08:35:02;;;;;;;10.30;3.13;;;22.10;99.90;;;;;;4993813;28;20084;-79
2021/07/04 08:37:27;;;;;;;7.72;2.80;;;22.10;99.90;;;;;;4994044;28;20084;-77
2021/07/04 08:39:53;;;;;;;11.45;2.30;;;22.10;99.90;;;;;;4993559;28;20026;-76
2021/07/04 08:42:19;;;;;;;11.55;2.65;;;22.10;99.90;;;;;;4993786;28;20113;-76
2021/07/04 08:44:50;;;;;;;11.55;2.63;;;22.10;99.90;;;;;;4993998;28;20430;-81
2021/07/04 08:47:17;;;;;;;9.55;2.90;;;22.10;99.90;;;;;;4994016;28;20061;-76
2021/07/04 08:49:43;;;;;;;6.88;2.67;;;22.10;99.90;;;;;;4992966;28;20101;-76
2021/07/04 08:52:08;;;;;;;10.27;2.63;;;22.10;99.90;;;;;;4994212;28;20037;-77
2021/07/04 08:54:34;;;;;;;5.63;2.08;;;22.10;99.90;;;;;;4993021;28;20030;-77
2021/07/04 08:57:00;;;;;;;9.32;3.08;;;22.10;99.90;;;;;;4993007;28;20510;-77
2021/07/04 08:59:25;;;;;;;10.27;2.80;;;22.10;99.90;;;;;;4993383;28;20035;-77
2021/07/04 09:01:51;;;;;;;6.90;2.10;;;22.10;99.90;;;;;;4993710;28;20408;-77
2021/07/04 09:04:21;;;;;;;7.65;2.33;;;22.10;99.90;;;;;;4993887;28;20037;-77
2021/07/04 09:06:48;;;;;;;10.20;2.97;;;22.10;99.90;;;;;;4994143;28;20022;-76
2021/07/04 09:09:16;;;;;;;8.93;2.60;;;22.10;99.90;;;;;;4993871;28;20026;-77
2021/07/04 09:12:06;;;;;;;6.53;2.20;;;22.10;99.90;;;;;;4992882;28;21024;-77
2021/07/04 09:14:34;;;;;;;7.13;1.65;;;22.10;99.90;;;;;;4993687;28;20084;-77
2021/07/04 09:17:01;;;;;;;6.43;1.92;;;22.10;99.90;;;;;;4992639;28;20399;-76
2021/07/04 09:19:27;;;;;;;12.38;2.03;;;22.10;99.90;;;;;;4993577;28;20026;-79
2021/07/04 09:22:01;;;;;;;10.63;2.20;;;22.10;99.90;;;;;;4993347;28;20371;-79
2021/07/04 09:24:29;;;;;;;5.38;2.08;;;22.10;99.90;;;;;;4993613;28;20026;-79
2021/07/04 09:26:55;;;;;;;7.05;1.60;;;22.10;99.90;;;;;;4993014;28;20044;-77
2021/07/04 09:29:52;;;;;;;6.80;2.50;;;22.10;99.90;;;;;;4993597;28;20553;-77
2021/07/04 09:32:27;;;;;;;10.27;2.00;;;22.10;99.90;;;;;;4992907;28;20034;-79
2021/07/04 09:35:04;;;;;;;9.50;1.70;;;22.10;99.90;;;;;;4992909;28;20027;-81
2021/07/04 09:37:41;;;;;;;7.60;2.05;;;22.10;99.90;;;;;;4993104;28;20034;-79
2021/07/04 09:40:15;;;;;;;7.63;1.85;;;22.10;99.90;;;;;;4992570;28;20018;-80
2021/07/04 09:43:06;;;;;;;9.18;1.67;;;22.10;99.90;;;;;;4992694;28;20027;-78
2021/07/04 09:45:53;;;;;;;5.72;1.70;;;22.10;99.90;;;;;;4979080;28;20029;-77
2021/07/04 09:48:20;;;;;;;14.05;2.55;;;22.10;99.90;;;;;;4990470;28;20482;-78
2021/07/04 09:50:51;;;;;;;7.93;1.70;;;22.10;99.90;;;;;;4993122;28;20033;-77
2021/07/04 09:53:18;;;;;;;11.63;2.58;;;22.20;99.90;;;;;;4993376;28;20030;-83
2021/07/04 09:55:48;;;;;;;5.82;2.08;;;22.10;99.90;;;;;;4992901;28;20026;-88
2021/07/04 09:58:14;;;;;;;3.80;1.52;;;22.20;99.90;;;;;;4993224;28;20109;-88
2021/07/04 10:00:44;;;;;;;6.00;1.77;;;22.20;99.90;;;;;;4991391;28;20142;-85
2021/07/04 10:03:14;;;;;;;5.05;1.50;;;22.20;99.90;;;;;;4992644;28;20014;-86
2021/07/04 10:05:53;;;;;;;7.97;1.60;;;22.20;99.90;;;;;;4992828;28;20029;-86
2021/07/04 10:08:19;;;;;;;5.75;1.30;;;22.20;99.90;;;;;;4993180;28;20057;-82
2021/07/04 10:10:46;;;;;;;3.75;1.33;;;22.10;99.90;;;;;;4991447;28;20050;-88
2021/07/04 10:13:11;;;;;;;7.78;1.45;;;22.10;99.90;;;;;;4992643;28;20042;-80
2021/07/04 10:15:40;;;;;;;5.55;1.35;;;22.20;99.90;;;;;;4992420;28;20109;-78
2021/07/04 10:18:08;;;;;;;7.20;1.60;;;22.10;99.90;;;;;;4994020;28;20018;-80
2021/07/04 10:20:35;;;;;;;5.32;1.27;;;22.20;99.90;;;;;;5012297;28;20022;-80
2021/07/04 10:23:01;;;;;;;9.93;1.20;;;22.20;99.90;;;;;;5000993;28;20018;-80
2021/07/04 10:25:26;;;;;;;14.50;1.80;;;22.20;99.90;;;;;;4992476;28;20022;-78
2021/07/04 10:27:52;;;;;;;3.75;1.00;;;22.10;99.90;;;;;;5007836;28;20056;-78
2021/07/04 10:30:21;;;;;;;9.70;1.27;;;22.20;99.90;;;;;;4992103;28;20034;-79
2021/07/04 10:33:07;;;;;;;9.07;1.30;;;22.20;99.90;;;;;;4990899;28;20420;-77
2021/07/04 10:35:33;;;;;;;5.70;1.40;;;22.20;99.90;;;;;;4992067;28;20022;-79
2021/07/04 10:38:19;;;;;;;5.20;1.10;;;22.20;99.90;;;;;;4992547;28;20039;-77
2021/07/04 10:40:44;;;;;;;5.80;1.20;;;22.20;99.90;;;;;;4991144;28;20043;-78
2021/07/04 10:43:49;;;;;;;4.80;1.23;;;22.20;99.90;;;;;;4991891;28;20049;-77
2021/07/04 10:46:15;;;;;;;6.65;1.20;;;22.20;99.90;;;;;;4992348;28;20399;-79
2021/07/04 10:48:55;;;;;;;7.22;1.00;;;22.30;99.90;;;;;;4989673;28;20034;-77
2021/07/04 10:51:22;;;;;;;5.32;0.82;;;22.30;99.90;;;;;;4984019;28;20022;-77
2021/07/04 10:53:53;;;;;;;9.77;0.90;;;22.30;99.90;;;;;;4991670;28;20046;-76
2021/07/04 10:56:39;;;;;;;7.53;1.30;;;22.30;99.90;;;;;;4991522;28;20022;-76
2021/07/04 10:59:05;;;;;;;;;;;22.30;99.90;;;;;;4992279;28;20026;-76
2021/07/04 11:01:48;;;;;;;5.40;1.00;;;22.30;99.90;;;;;;4990846;28;19914;-77
2021/07/04 11:04:33;;;;;;;8.32;1.30;;;22.40;99.90;;;;;;4991316;28;20489;-78
2021/07/04 11:07:00;;;;;;;8.38;1.10;;;22.40;99.90;;;;;;4991866;28;20033;-79
2021/07/04 11:09:52;;;;;;;4.10;1.08;;;22.40;99.90;;;;;;4991982;28;20027;-78
2021/07/04 11:12:26;;;;;;;7.00;0.90;;;22.40;99.90;;;;;;4974948;28;20046;-77
2021/07/04 11:15:17;;;;;;;5.32;0.90;;;22.40;99.90;;;;;;4991810;28;20042;-78
2021/07/04 11:17:55;;;;;;;7.13;1.15;;;22.40;99.90;;;;;;4990471;28;20126;-80
2021/07/04 11:20:25;;;;;;;1.92;0.93;;;22.40;99.90;;;;;;4991478;28;20032;-80
2021/07/04 11:22:55;;;;;;;8.38;1.10;;;22.40;99.90;;;;;;4991608;28;20026;-82
2021/07/04 11:25:22;;;;;;;4.60;0.80;;;22.40;99.90;;;;;;4991833;28;20023;-80
2021/07/04 11:28:20;;;;;;;6.05;1.75;;;22.40;99.90;;;;;;4991672;28;20026;-79
2021/07/04 11:31:01;;;;;;;6.70;0.80;;;22.40;99.90;;;;;;4991118;28;20038;-77
2021/07/04 11:33:50;;;;;;;5.90;0.98;;;22.50;99.90;;;;;;4989661;28;20561;-78
2021/07/04 11:36:16;;;;;;;2.70;0.73;;;22.50;99.90;;;;;;4972400;28;20376;-79
2021/07/04 11:38:46;;;;;;;4.53;0.68;;;22.60;99.90;;;;;;4972931;28;20158;-76
2021/07/04 11:41:17;;;;;;;9.20;0.90;;;22.60;99.90;;;;;;4991007;28;20022;-78
2021/07/04 11:43:44;;;;;;;6.82;0.77;;;22.50;99.90;;;;;;4991453;28;20105;-82
2021/07/04 11:46:12;;;;;;;3.78;0.65;;;22.60;99.90;;;;;;4991379;28;20515;-80
2021/07/04 11:49:08;;;;;;;1.77;0.50;;;22.50;99.90;;;;;;4990881;28;20033;-80
2021/07/04 11:51:45;;;;;;;3.65;0.50;;;22.40;99.90;;;;;;4991358;28;20041;-77
2021/07/04 11:54:32;;;;;;;3.50;0.57;;;22.40;99.90;;;;;;4972206;28;20034;-80
2021/07/04 11:59:58;;;;;;;2.72;0.50;;;22.40;99.90;;;;;;4990998;28;20475;-77
2021/07/04 12:02:25;;;;;;;3.55;0.45;;;22.50;99.90;;;;;;4991260;28;20047;-77
2021/07/04 12:04:52;;;;;;;8.38;0.70;;;22.50;99.90;;;;;;4991100;28;20029;-78
2021/07/04 12:07:22;;;;;;;2.80;0.73;;;22.50;99.90;;;;;;4990837;28;20034;-77
2021/07/04 12:09:52;;;;;;;7.05;0.80;;;22.50;99.90;;;;;;4990767;28;20122;-78
2021/07/04 12:12:33;;;;;;;1.65;0.50;;;22.40;99.90;;;;;;4991312;28;20026;-78
2021/07/04 12:15:08;;;;;;;5.15;0.55;;;22.50;99.90;;;;;;4990710;28;20034;-79
2021/07/04 12:17:33;;;;;;;10.40;0.52;;;22.40;99.90;;;;;;4990696;28;20081;-77
2021/07/04 12:20:00;;;;;;;4.57;0.57;;;22.50;99.90;;;;;;4990513;28;20038;-77
2021/07/04 12:22:29;;;;;;;1.90;0.43;;;22.60;99.90;;;;;;4991571;28;20051;-77
2021/07/04 12:24:55;;;;;;;1.00;0.40;;;22.50;99.90;;;;;;4992512;28;20027;-77
2021/07/04 12:27:41;;;;;;;1.30;0.60;;;22.50;99.90;;;;;;4994473;28;20030;-76
2021/07/04 12:30:13;;;;;;;1.80;0.60;;;22.60;99.90;;;;;;4994562;28;20499;-77
2021/07/04 12:32:58;;;;;;;4.32;0.52;;;22.70;99.90;;;;;;4993445;28;20551;-77
2021/07/04 12:35:30;;;;;;;4.82;0.50;;;22.70;99.90;;;;;;4975584;28;20031;-77
2021/07/04 12:37:58;;;;;;;4.75;0.73;;;22.70;99.90;;;;;;4993019;28;20059;-79
2021/07/04 12:40:33;;;;;;;1.50;0.50;;;22.70;99.90;;;;;;4994595;28;20483;-79
2021/07/04 12:43:13;;;;;;;1.25;0.43;;;22.70;99.90;;;;;;4994297;28;20038;-78
2021/07/04 12:45:48;;;;;;;2.88;0.60;;;22.70;99.90;;;;;;4993642;28;20035;-82
2021/07/04 12:48:16;;;;;;;2.55;0.40;;;22.80;99.90;;;;;;4994233;28;20031;-79
2021/07/04 12:50:47;;;;;;;4.57;0.60;;;22.80;99.90;;;;;;4993706;28;20065;-79
2021/07/04 12:53:14;;;;;;;3.90;0.60;;;22.80;99.90;;;;;;4994261;28;20038;-80